Terminal Aerodrome Forecast
Issued by NWS Goodland, KS

Home | Current Version | Previous Version | Text Only | Print | Product List | Glossary On
Versions: 1 2 3 4 5 6 7 8 9 10 11 12 13 14 15
000
FTUS43 KGLD 291720
TAFGLD
TAF
KGLD 291720Z 2918/3018 17028G38KT P6SM SCT080 BKN200
     FM292300 16025G38KT P6SM VCTS SCT040CB BKN080
     FM300100 16020G30KT 5SM -TSRA BKN035CB
     FM300600 23012KT P6SM VCSH SCT030 BKN080
     FM301300 25006KT P6SM SCT040=

USA.gov is the U.S. government's official web portal to all federal, state and local government web resources and services.